Time,TemperatureF,DewpointF,PressureIn,WindDirection,WindDirectionDegrees,WindSpeedMPH,WindSpeedGustMPH,Humidity,HourlyPrecipIn,Conditions,Clouds,dailyrainin,SoftwareType,DateUTC
2013-02-20 00:00:00,16.7,10.8,29.91,WSW,248,9.0,9.0,77,0.00,,,0.00,VWS V14.01,2013-02-20 05:00:00,
2013-02-20 00:05:00,16.7,10.8,29.91,WSW,248,9.0,9.0,77,0.00,,,0.00,VWS V14.01,2013-02-20 05:05:00,
2013-02-20 00:10:00,16.7,10.8,29.91,WSW,248,9.0,9.0,77,0.00,,,0.00,VWS V14.01,2013-02-20 05:10:00,
2013-02-20 00:15:00,16.7,10.8,29.91,WSW,248,9.0,9.0,77,0.00,,,0.00,VWS V14.01,2013-02-20 05:15:00,
2013-02-20 00:20:00,16.7,10.8,29.91,WSW,248,9.0,9.0,77,0.00,,,0.00,VWS V14.01,2013-02-20 05:20:00,
2013-02-20 00:25:00,16.7,10.8,29.91,WSW,248,9.0,9.0,77,0.00,,,0.00,VWS V14.01,2013-02-20 05:25:00,
2013-02-20 00:30:00,16.7,10.8,29.91,WSW,248,9.0,9.0,77,0.00,,,0.00,VWS V14.01,2013-02-20 05:30:00,
2013-02-20 00:35:00,16.7,11.1,29.91,WSW,248,9.0,9.0,78,0.00,,,0.00,VWS V14.01,2013-02-20 05:35:00,
2013-02-20 00:40:00,16.7,10.9,29.88,WSW,248,9.0,9.0,78,0.00,,,0.00,VWS V14.01,2013-02-20 05:40:00,
2013-02-20 00:45:00,16.7,10.8,29.88,WSW,248,9.0,9.0,77,0.00,,,0.00,VWS V14.01,2013-02-20 05:45:00,
2013-02-20 00:50:00,16.7,10.8,29.88,WSW,248,9.0,9.0,77,0.00,,,0.00,VWS V14.01,2013-02-20 05:50:00,
2013-02-20 00:55:00,16.7,10.9,29.88,WSW,248,9.0,9.0,78,0.00,,,0.00,VWS V14.01,2013-02-20 05:55:00,
2013-02-20 01:01:00,16.7,10.8,29.88,WSW,248,8.4,8.4,77,0.00,,,0.00,VWS V14.01,2013-02-20 06:01:00,
2013-02-20 01:06:00,16.7,10.8,29.88,WSW,248,24.1,24.1,77,0.00,,,0.00,VWS V14.01,2013-02-20 06:06:00,
2013-02-20 01:11:00,16.7,10.8,29.91,WSW,248,8.4,8.4,77,0.00,,,0.00,VWS V14.01,2013-02-20 06:11:00,
2013-02-20 01:16:00,16.7,10.6,29.91,West,270,9.5,12.5,76,0.00,,,0.00,VWS V14.01,2013-02-20 06:16:00,
2013-02-20 01:21:00,16.7,10.6,29.91,WNW,292,7.3,7.3,76,0.00,,,0.00,VWS V14.01,2013-02-20 06:21:00,
2013-02-20 01:26:00,16.7,10.6,29.91,WNW,292,7.3,7.3,76,0.00,,,0.00,VWS V14.01,2013-02-20 06:26:00,
2013-02-20 01:31:00,16.7,10.6,29.91,WNW,292,7.3,7.3,76,0.00,,,0.00,VWS V14.01,2013-02-20 06:31:00,
2013-02-20 01:36:00,16.7,10.6,29.91,WSW,248,0.0,0.0,76,0.00,,,0.00,VWS V14.01,2013-02-20 06:36:00,
2013-02-20 01:41:00,16.7,10.8,29.91,NE,45,3.9,14.0,77,0.00,,,0.00,VWS V14.01,2013-02-20 06:41:00,
2013-02-20 01:46:00,16.5,10.4,29.91,SSE,158,7.3,7.3,76,0.00,,,0.00,VWS V14.01,2013-02-20 06:46:00,
2013-02-20 01:51:00,16.5,10.4,29.91,ENE,68,2.2,2.2,76,0.00,,,0.00,VWS V14.01,2013-02-20 06:51:00,
2013-02-20 01:56:00,16.5,10.4,29.91,ENE,68,2.2,2.2,76,0.00,,,0.00,VWS V14.01,2013-02-20 06:56:00,
2013-02-20 02:01:00,16.5,10.4,29.91,ENE,68,2.2,2.2,76,0.00,,,0.00,VWS V14.01,2013-02-20 07:01:00,
2013-02-20 02:06:00,16.5,10.4,29.91,WSW,248,7.8,7.8,76,0.00,,OVC031,0.00,VWS V14.01,2013-02-20 07:06:00,
2013-02-20 02:11:00,16.5,10.4,29.91,WNW,292,7.8,7.8,76,0.00,,OVC031,0.00,VWS V14.01,2013-02-20 07:11:00,
2013-02-20 02:16:00,16.5,10.3,29.91,West,270,6.7,6.7,76,0.00,,OVC031,0.00,VWS V14.01,2013-02-20 07:16:00,
2013-02-20 02:21:00,16.5,10.3,29.91,NE,45,5.6,7.2,76,0.00,,OVC031,0.00,VWS V14.01,2013-02-20 07:21:00,
2013-02-20 02:26:00,16.5,10.4,29.94,NW,315,6.7,6.7,76,0.00,,OVC031,0.00,VWS V14.01,2013-02-20 07:26:00,
2013-02-20 02:31:00,16.5,10.4,29.94,NW,315,5.0,5.0,76,0.00,,OVC031,0.00,VWS V14.01,2013-02-20 07:31:00,
2013-02-20 02:36:00,16.3,10.3,29.94,SW,225,10.6,10.6,76,0.00,,OVC031,0.00,VWS V14.01,2013-02-20 07:36:00,
2013-02-20 02:41:00,16.3,10.3,29.94,WSW,248,6.2,6.2,76,0.00,,,0.00,VWS V14.01,2013-02-20 07:41:00,
2013-02-20 02:46:00,16.3,10.4,29.94,WNW,292,3.9,3.9,77,0.00,,,0.00,VWS V14.01,2013-02-20 07:46:00,
2013-02-20 02:51:00,16.3,10.6,29.94,ESE,112,11.7,11.7,78,0.00,,,0.00,VWS V14.01,2013-02-20 07:51:00,
2013-02-20 02:56:00,16.3,10.6,29.94,WSW,248,5.6,5.6,78,0.00,,,0.00,VWS V14.01,2013-02-20 07:56:00,
2013-02-20 03:05:00,16.2,10.8,29.94,WNW,292,7.3,7.3,79,0.00,,,0.00,VWS V14.01,2013-02-20 08:05:00,
2013-02-20 03:10:00,16.2,10.8,29.94,WSW,248,7.3,7.3,79,0.00,,,0.00,VWS V14.01,2013-02-20 08:10:00,
2013-02-20 03:15:00,16.2,10.8,29.94,WNW,292,5.6,5.6,79,0.00,,,0.00,VWS V14.01,2013-02-20 08:15:00,
2013-02-20 03:20:00,16.2,10.9,29.94,WSW,248,12.3,14.0,80,0.00,,,0.00,VWS V14.01,2013-02-20 08:20:00,
2013-02-20 03:25:00,16.2,10.8,29.94,WSW,248,6.2,7.2,79,0.00,,,0.00,VWS V14.01,2013-02-20 08:25:00,
2013-02-20 03:30:00,16.2,10.8,29.94,West,270,9.0,11.5,79,0.00,,,0.00,VWS V14.01,2013-02-20 08:30:00,
2013-02-20 03:35:00,16.2,10.9,29.94,WNW,292,5.0,5.0,80,0.00,,,0.00,VWS V14.01,2013-02-20 08:35:00,
2013-02-20 03:40:00,16.0,10.8,29.94,WSW,248,6.2,6.2,80,0.00,,,0.00,VWS V14.01,2013-02-20 08:40:00,
2013-02-20 03:45:00,16.0,11.1,29.94,NW,315,2.2,18.8,80,0.00,,,0.00,VWS V14.01,2013-02-20 08:45:00,
2013-02-20 03:50:00,15.8,10.9,29.94,West,270,3.9,3.9,80,0.00,,,0.00,VWS V14.01,2013-02-20 08:50:00,
2013-02-20 03:55:00,15.8,10.6,29.94,WNW,292,6.7,6.7,80,0.00,,,0.00,VWS V14.01,2013-02-20 08:55:00,
2013-02-20 04:00:00,15.8,10.6,29.94,WSW,248,0.0,0.0,80,0.00,,,0.00,VWS V14.01,2013-02-20 09:00:00,
2013-02-20 04:05:00,15.8,10.6,29.94,WSW,248,3.9,10.1,80,0.00,,,0.00,VWS V14.01,2013-02-20 09:05:00,
2013-02-20 04:10:00,15.6,10.1,29.94,WNW,292,2.8,3.4,78,0.00,,,0.00,VWS V14.01,2013-02-20 09:10:00,
2013-02-20 04:15:00,15.6,10.1,29.94,SSE,158,7.8,7.8,78,0.00,,,0.00,VWS V14.01,2013-02-20 09:15:00,
2013-02-20 04:20:00,15.4,10.1,29.94,NE,45,7.3,10.1,79,0.00,,,0.00,VWS V14.01,2013-02-20 09:20:00,
2013-02-20 04:25:00,15.4,10.2,29.97,NW,315,9.5,10.1,80,0.00,,,0.00,VWS V14.01,2013-02-20 09:25:00,
2013-02-20 04:30:00,15.3,9.8,29.97,WSW,248,12.3,12.3,78,0.00,,,0.00,VWS V14.01,2013-02-20 09:30:00,
2013-02-20 04:35:00,15.1,9.3,29.97,WNW,292,10.6,10.6,78,0.00,,,0.00,VWS V14.01,2013-02-20 09:35:00,
2013-02-20 04:40:00,15.1,9.5,29.97,WNW,292,7.8,7.8,78,0.00,,,0.00,VWS V14.01,2013-02-20 09:40:00,
2013-02-20 04:45:00,15.1,9.5,29.97,WNW,292,8.4,8.4,78,0.00,,,0.00,VWS V14.01,2013-02-20 09:45:00,
2013-02-20 04:50:00,14.9,9.1,29.97,WSW,248,7.3,11.5,78,0.00,,,0.00,VWS V14.01,2013-02-20 09:50:00,
2013-02-20 04:55:00,14.7,8.8,30.00,WSW,248,15.1,15.1,77,0.00,,,0.00,VWS V14.01,2013-02-20 09:55:00,
2013-02-20 05:00:00,14.5,8.7,30.00,NW,315,0.0,0.0,77,0.00,,,0.00,VWS V14.01,2013-02-20 10:00:00,
2013-02-20 05:05:00,14.4,8.5,30.00,WSW,248,3.4,5.3,77,0.00,,,0.00,VWS V14.01,2013-02-20 10:05:00,
2013-02-20 05:10:00,14.2,8.3,29.94,WSW,248,6.7,7.2,77,0.00,,,0.00,VWS V14.01,2013-02-20 10:10:00,
2013-02-20 05:15:00,14.2,8.3,29.94,NE,45,5.6,6.3,77,0.00,,,0.00,VWS V14.01,2013-02-20 10:15:00,
2013-02-20 05:20:00,14.2,8.2,29.94,WNW,292,5.0,5.3,76,0.00,,,0.00,VWS V14.01,2013-02-20 10:20:00,
2013-02-20 05:25:00,14.0,8.0,29.97,WSW,248,5.0,12.5,76,0.00,,,0.00,VWS V14.01,2013-02-20 10:25:00,
2013-02-20 05:30:00,14.2,8.0,29.97,SW,225,10.1,12.5,76,0.00,,,0.00,VWS V14.01,2013-02-20 10:30:00,
2013-02-20 05:35:00,14.2,7.9,29.97,West,270,6.7,6.7,76,0.00,,,0.00,VWS V14.01,2013-02-20 10:35:00,
2013-02-20 05:40:00,14.2,7.6,29.97,WNW,292,10.6,10.6,74,0.00,,,0.00,VWS V14.01,2013-02-20 10:40:00,
2013-02-20 05:45:00,14.2,7.6,29.97,WNW,292,0.0,9.1,74,0.00,,,0.00,VWS V14.01,2013-02-20 10:45:00,
2013-02-20 05:51:00,14.4,7.8,29.97,WSW,248,3.9,4.8,74,0.00,,,0.00,VWS V14.01,2013-02-20 10:51:00,
2013-02-20 05:56:00,14.4,7.9,29.97,SSE,158,10.1,10.6,75,0.00,,,0.00,VWS V14.01,2013-02-20 10:56:00,
2013-02-20 06:01:00,14.5,7.9,29.97,WSW,248,5.6,7.7,74,0.00,,BKN038,0.00,VWS V14.01,2013-02-20 11:01:00,
2013-02-20 06:06:00,14.5,8.1,29.97,WSW,248,9.0,9.1,75,0.00,,BKN038,0.00,VWS V14.01,2013-02-20 11:06:00,
2013-02-20 06:11:00,14.5,7.9,30.00,WSW,248,5.6,5.8,74,0.00,,BKN038,0.00,VWS V14.01,2013-02-20 11:11:00,
2013-02-20 06:16:00,14.5,8.2,30.00,WNW,292,10.6,10.6,76,0.00,,BKN038,0.00,VWS V14.01,2013-02-20 11:16:00,
2013-02-20 06:21:00,14.7,8.2,30.00,West,270,2.2,4.3,75,0.00,,BKN038,0.00,VWS V14.01,2013-02-20 11:21:00,
2013-02-20 06:26:00,14.7,8.4,30.00,WNW,292,14.0,14.0,76,0.00,,BKN038,0.00,VWS V14.01,2013-02-20 11:26:00,
2013-02-20 06:31:00,14.7,8.4,30.00,WSW,248,12.3,12.3,76,0.00,,BKN038,0.00,VWS V14.01,2013-02-20 11:31:00,
2013-02-20 06:36:00,14.7,8.4,30.00,NW,315,3.4,8.7,76,0.00,,BKN038,0.00,VWS V14.01,2013-02-20 11:36:00,
2013-02-20 06:41:00,14.7,8.4,30.00,WSW,248,10.6,10.6,76,0.00,,BKN038,0.00,VWS V14.01,2013-02-20 11:41:00,
2013-02-20 06:46:00,14.9,8.6,30.00,NW,315,9.5,9.5,76,0.00,,BKN038,0.00,VWS V14.01,2013-02-20 11:46:00,
2013-02-20 06:51:00,14.9,8.4,30.00,ENE,68,5.6,7.7,75,0.00,,BKN038,0.00,VWS V14.01,2013-02-20 11:51:00,
2013-02-20 06:56:00,14.9,8.4,30.00,NW,315,9.0,9.0,75,0.00,,BKN038,0.00,VWS V14.01,2013-02-20 11:56:00,
2013-02-20 07:01:00,14.7,8.2,30.00,WNW,292,3.9,8.7,75,0.00,,OVC034,0.00,VWS V14.01,2013-02-20 12:01:00,
2013-02-20 07:06:00,14.7,8.2,30.00,NW,315,7.3,7.3,75,0.00,,OVC034,0.00,VWS V14.01,2013-02-20 12:06:00,
2013-02-20 07:11:00,14.7,8.2,30.03,West,270,12.3,12.3,75,0.00,,OVC034,0.00,VWS V14.01,2013-02-20 12:11:00,
2013-02-20 07:16:00,14.7,8.2,30.03,NW,315,13.4,13.4,75,0.00,,OVC034,0.00,VWS V14.01,2013-02-20 12:16:00,
2013-02-20 07:21:00,14.7,8.1,30.03,WSW,248,10.6,10.6,74,0.00,,OVC034,0.00,VWS V14.01,2013-02-20 12:21:00,
2013-02-20 07:26:00,14.5,7.9,30.03,WSW,248,13.4,13.4,74,0.00,,OVC034,0.00,VWS V14.01,2013-02-20 12:26:00,
2013-02-20 07:31:00,14.7,8.1,30.03,NW,315,9.5,9.5,74,0.00,,OVC034,0.00,VWS V14.01,2013-02-20 12:31:00,
2013-02-20 07:36:00,14.7,8.2,30.03,WNW,292,11.7,11.7,75,0.00,,OVC034,0.00,VWS V14.01,2013-02-20 12:36:00,
2013-02-20 07:41:00,14.7,8.2,30.03,WNW,292,0.0,5.8,75,0.00,,OVC034,0.00,VWS V14.01,2013-02-20 12:41:00,
2013-02-20 07:46:00,14.7,8.2,30.03,SSW,202,10.6,10.6,75,0.00,,OVC034,0.00,VWS V14.01,2013-02-20 12:46:00,
2013-02-20 07:51:00,14.7,8.2,30.03,WSW,248,3.9,3.9,75,0.00,,OVC034,0.00,VWS V14.01,2013-02-20 12:51:00,
2013-02-20 07:56:00,14.7,8.2,30.03,NW,315,2.2,4.3,75,0.00,,OVC034,0.00,VWS V14.01,2013-02-20 12:56:00,
2013-02-20 08:01:00,14.7,8.2,30.03,WSW,248,3.4,7.2,75,0.00,,BKN033,0.00,VWS V14.01,2013-02-20 13:01:00,
2013-02-20 08:06:00,14.7,8.2,30.03,NE,45,9.0,10.1,75,0.00,,BKN033,0.00,VWS V14.01,2013-02-20 13:06:00,
2013-02-20 08:11:00,14.9,8.4,30.03,WSW,248,6.7,17.3,75,0.00,,BKN033,0.00,VWS V14.01,2013-02-20 13:11:00,
2013-02-20 08:16:00,14.9,8.4,30.03,WSW,248,6.2,6.3,75,0.00,,BKN033,0.00,VWS V14.01,2013-02-20 13:16:00,
2013-02-20 08:21:00,14.9,8.4,30.03,NW,315,5.0,13.5,75,0.00,,BKN033,0.00,VWS V14.01,2013-02-20 13:21:00,
2013-02-20 08:26:00,14.9,8.4,30.03,NE,45,6.2,12.5,75,0.00,,BKN033,0.00,VWS V14.01,2013-02-20 13:26:00,
2013-02-20 08:31:00,14.9,8.4,30.03,NE,45,5.0,13.0,75,0.00,,BKN033,0.00,VWS V14.01,2013-02-20 13:31:00,
2013-02-20 08:36:00,14.9,8.6,30.03,WNW,292,15.7,15.7,76,0.00,,BKN033,0.00,VWS V14.01,2013-02-20 13:36:00,
2013-02-20 08:41:00,15.1,8.8,30.03,WNW,292,8.4,8.4,76,0.00,,BKN033,0.00,VWS V14.01,2013-02-20 13:41:00,
2013-02-20 08:46:00,15.1,8.8,30.03,WSW,248,2.2,7.7,76,0.00,,BKN034,0.00,VWS V14.01,2013-02-20 13:46:00,
2013-02-20 08:51:00,15.3,8.9,30.03,WNW,292,9.5,9.5,76,0.00,,BKN034,0.00,VWS V14.01,2013-02-20 13:51:00,
2013-02-20 08:56:00,15.3,8.8,30.03,West,270,16.2,16.2,75,0.00,,BKN034,0.00,VWS V14.01,2013-02-20 13:56:00,
2013-02-20 09:01:00,15.4,8.9,30.03,WSW,248,2.2,2.2,75,0.00,,BKN038,0.00,VWS V14.01,2013-02-20 14:01:00,
2013-02-20 09:06:00,15.4,8.9,30.03,West,270,9.5,9.5,75,0.00,,BKN038,0.00,VWS V14.01,2013-02-20 14:06:00,
2013-02-20 09:11:00,15.4,9.1,30.06,NE,45,7.3,7.3,76,0.00,,BKN038,0.00,VWS V14.01,2013-02-20 14:11:00,
2013-02-20 09:16:00,15.6,9.4,30.06,NW,315,10.1,10.1,76,0.00,,BKN038,0.00,VWS V14.01,2013-02-20 14:16:00,
2013-02-20 09:21:00,15.6,9.7,30.06,West,270,3.9,12.5,77,0.00,,BKN038,0.00,VWS V14.01,2013-02-20 14:21:00,
2013-02-20 09:26:00,15.6,9.7,30.06,West,270,12.3,12.3,77,0.00,,BKN038,0.00,VWS V14.01,2013-02-20 14:26:00,
2013-02-20 09:32:00,15.6,9.7,30.06,NW,315,11.7,11.7,77,0.00,,BKN038,0.00,VWS V14.01,2013-02-20 14:32:00,
2013-02-20 09:37:00,15.8,10.0,30.06,WNW,292,6.7,6.7,78,0.00,,BKN038,0.00,VWS V14.01,2013-02-20 14:37:00,
2013-02-20 09:42:00,16.0,10.1,30.06,West,270,10.1,10.1,77,0.00,,BKN038,0.00,VWS V14.01,2013-02-20 14:42:00,
2013-02-20 09:47:00,16.0,10.1,30.06,WSW,248,0.0,7.7,77,0.00,,BKN038,0.00,VWS V14.01,2013-02-20 14:47:00,
2013-02-20 09:52:00,16.2,10.2,30.06,WNW,292,2.8,2.8,77,0.00,,BKN038,0.00,VWS V14.01,2013-02-20 14:52:00,
2013-02-20 09:57:00,16.3,10.4,30.06,WNW,292,2.8,2.8,77,0.00,,BKN038,0.00,VWS V14.01,2013-02-20 14:57:00,
2013-02-20 10:02:00,16.5,10.4,30.06,WNW,292,12.3,12.3,76,0.00,,,0.00,VWS V14.01,2013-02-20 15:02:00,
2013-02-20 10:07:00,16.5,10.4,30.06,NW,315,8.4,8.4,76,0.00,,,0.00,VWS V14.01,2013-02-20 15:07:00,
2013-02-20 10:12:00,16.5,10.4,30.06,NW,315,10.6,10.6,76,0.00,,,0.00,VWS V14.01,2013-02-20 15:12:00,
2013-02-20 10:17:00,16.5,10.4,30.06,NE,45,11.7,11.7,76,0.00,,,0.00,VWS V14.01,2013-02-20 15:17:00,
2013-02-20 10:22:00,16.5,10.3,30.06,West,270,7.3,7.3,76,0.00,,,0.00,VWS V14.01,2013-02-20 15:22:00,
2013-02-20 10:27:00,16.5,10.1,30.06,West,270,7.3,7.3,76,0.00,,,0.00,VWS V14.01,2013-02-20 15:27:00,
2013-02-20 10:32:00,16.5,10.1,30.06,West,270,7.3,7.3,76,0.00,,,0.00,VWS V14.01,2013-02-20 15:32:00,
2013-02-20 10:37:00,16.9,10.8,30.06,West,270,7.3,7.3,76,0.00,,,0.00,VWS V14.01,2013-02-20 15:37:00,
2013-02-20 10:42:00,17.1,10.8,30.09,West,270,7.3,7.3,76,0.00,,,0.00,VWS V14.01,2013-02-20 15:42:00,
2013-02-20 10:47:00,17.1,10.8,30.09,West,270,7.3,7.3,76,0.00,,,0.00,VWS V14.01,2013-02-20 15:47:00,
2013-02-20 10:52:00,17.2,10.8,30.09,West,270,7.3,7.3,76,0.00,,,0.00,VWS V14.01,2013-02-20 15:52:00,
2013-02-20 10:57:00,17.4,11.0,30.09,West,270,7.3,7.3,76,0.00,,,0.00,VWS V14.01,2013-02-20 15:57:00,
2013-02-20 11:02:00,17.4,10.6,30.09,West,270,7.3,7.3,74,0.00,,,0.00,VWS V14.01,2013-02-20 16:02:00,
2013-02-20 11:07:00,17.6,10.9,30.09,West,270,7.3,7.3,74,0.00,,,0.00,VWS V14.01,2013-02-20 16:07:00,
2013-02-20 11:12:00,17.6,10.9,30.09,West,270,7.3,7.3,74,0.00,,,0.00,VWS V14.01,2013-02-20 16:12:00,
2013-02-20 11:17:00,17.8,10.8,30.09,West,270,7.3,7.3,74,0.00,,,0.00,VWS V14.01,2013-02-20 16:17:00,
2013-02-20 11:22:00,17.8,10.8,30.09,West,270,7.3,7.3,74,0.00,,,0.00,VWS V14.01,2013-02-20 16:22:00,
2013-02-20 11:27:00,18.0,10.9,30.09,West,270,7.3,7.3,74,0.00,,,0.00,VWS V14.01,2013-02-20 16:27:00,
2013-02-20 11:32:00,18.1,11.1,30.09,West,270,7.3,7.3,74,0.00,,,0.00,VWS V14.01,2013-02-20 16:32:00,
2013-02-20 11:37:00,18.0,11.1,30.09,West,270,7.3,7.3,74,0.00,,,0.00,VWS V14.01,2013-02-20 16:37:00,
2013-02-20 11:42:00,18.1,11.1,30.09,West,270,7.3,7.3,74,0.00,,,0.00,VWS V14.01,2013-02-20 16:42:00,
2013-02-20 11:47:00,18.1,11.1,30.09,West,270,7.3,7.3,74,0.00,,,0.00,VWS V14.01,2013-02-20 16:47:00,
2013-02-20 11:52:00,18.3,11.1,30.09,West,270,7.3,7.3,73,0.00,,,0.00,VWS V14.01,2013-02-20 16:52:00,
2013-02-20 11:57:00,18.3,11.3,30.09,West,270,7.3,7.3,74,0.00,,,0.00,VWS V14.01,2013-02-20 16:57:00,
2013-02-20 12:02:00,18.5,11.3,30.09,West,270,7.3,7.3,73,0.00,,,0.00,VWS V14.01,2013-02-20 17:02:00,
2013-02-20 12:07:00,18.7,11.6,30.09,West,270,7.3,7.3,74,0.00,,,0.00,VWS V14.01,2013-02-20 17:07:00,
2013-02-20 12:12:00,19.0,11.7,30.09,West,270,7.3,7.3,72,0.00,,,0.00,VWS V14.01,2013-02-20 17:12:00,
2013-02-20 12:17:00,19.0,11.7,30.09,West,270,7.3,7.3,72,0.00,,,0.00,VWS V14.01,2013-02-20 17:17:00,
2013-02-20 12:22:00,18.9,11.5,30.09,West,270,7.3,7.3,72,0.00,,,0.00,VWS V14.01,2013-02-20 17:22:00,
2013-02-20 12:27:00,19.0,11.7,30.09,West,270,7.3,7.3,72,0.00,,,0.00,VWS V14.01,2013-02-20 17:27:00,
2013-02-20 12:32:00,18.9,11.3,30.09,West,270,7.3,7.3,72,0.00,,,0.00,VWS V14.01,2013-02-20 17:32:00,
2013-02-20 12:37:00,18.9,11.5,30.09,West,270,7.3,7.3,72,0.00,,,0.00,VWS V14.01,2013-02-20 17:37:00,
2013-02-20 12:42:00,19.0,11.7,30.09,West,270,7.3,7.3,72,0.00,,,0.00,VWS V14.01,2013-02-20 17:42:00,
2013-02-20 12:47:00,19.0,11.8,30.09,WSW,248,3.9,4.3,73,0.00,,,0.00,VWS V14.01,2013-02-20 17:47:00,
2013-02-20 12:52:00,19.2,12.1,30.09,WSW,248,9.0,9.0,74,0.00,,,0.00,VWS V14.01,2013-02-20 17:52:00,
2013-02-20 12:57:00,19.2,12.0,30.09,SW,225,6.2,6.2,73,0.00,,,0.00,VWS V14.01,2013-02-20 17:57:00,
2013-02-20 13:02:00,19.2,12.0,30.09,NW,315,7.8,7.8,73,0.00,,,0.00,VWS V14.01,2013-02-20 18:02:00,
2013-02-20 13:07:00,19.2,12.0,30.09,WSW,248,19.6,19.6,73,0.00,,,0.00,VWS V14.01,2013-02-20 18:07:00,
2013-02-20 13:12:00,19.4,12.2,30.09,WSW,248,7.8,7.8,73,0.00,,,0.00,VWS V14.01,2013-02-20 18:12:00,
2013-02-20 13:17:00,19.6,12.2,30.09,NW,315,9.5,14.0,72,0.00,,,0.00,VWS V14.01,2013-02-20 18:17:00,
2013-02-20 13:22:00,19.8,12.4,30.09,SW,225,16.2,16.2,72,0.00,,,0.00,VWS V14.01,2013-02-20 18:22:00,
2013-02-20 13:27:00,19.9,12.5,30.12,NW,315,6.7,11.5,72,0.00,,,0.00,VWS V14.01,2013-02-20 18:27:00,
2013-02-20 13:32:00,20.1,12.6,30.12,WSW,248,15.7,15.7,72,0.00,,,0.00,VWS V14.01,2013-02-20 18:32:00,
2013-02-20 13:37:00,20.1,12.6,30.12,WNW,292,2.8,6.3,72,0.00,,,0.00,VWS V14.01,2013-02-20 18:37:00,
2013-02-20 13:43:00,20.3,12.7,30.12,SW,225,5.0,6.7,72,0.00,,,0.00,VWS V14.01,2013-02-20 18:43:00,
2013-02-20 13:48:00,20.3,12.7,30.12,WNW,292,6.2,6.2,72,0.00,,,0.00,VWS V14.01,2013-02-20 18:48:00,
2013-02-20 13:53:00,20.3,12.7,30.12,SSW,202,6.7,7.2,72,0.00,,,0.00,VWS V14.01,2013-02-20 18:53:00,
2013-02-20 13:58:00,20.3,12.7,30.12,SW,225,10.6,10.6,72,0.00,,,0.00,VWS V14.01,2013-02-20 18:58:00,
2013-02-20 14:03:00,20.5,12.9,30.12,WSW,248,3.9,5.8,72,0.00,,,0.00,VWS V14.01,2013-02-20 19:03:00,
2013-02-20 14:08:00,20.5,12.9,30.12,WSW,248,9.5,9.5,72,0.00,,,0.00,VWS V14.01,2013-02-20 19:08:00,
2013-02-20 14:13:00,20.5,12.9,30.12,WSW,248,10.6,12.5,72,0.00,,,0.00,VWS V14.01,2013-02-20 19:13:00,
2013-02-20 14:18:00,20.5,12.9,30.12,WSW,248,13.4,13.4,72,0.00,,,0.00,VWS V14.01,2013-02-20 19:18:00,
2013-02-20 14:23:00,20.3,12.6,30.12,WSW,248,7.8,9.1,72,0.00,,,0.00,VWS V14.01,2013-02-20 19:23:00,
2013-02-20 14:28:00,20.3,12.7,30.12,WSW,248,6.7,6.7,72,0.00,,,0.00,VWS V14.01,2013-02-20 19:28:00,
2013-02-20 14:33:00,20.3,12.6,30.12,WSW,248,6.7,6.7,72,0.00,,,0.00,VWS V14.01,2013-02-20 19:33:00,
2013-02-20 14:38:00,20.5,12.9,30.12,NW,315,5.0,5.0,72,0.00,,,0.00,VWS V14.01,2013-02-20 19:38:00,
2013-02-20 14:43:00,20.5,12.8,30.15,WSW,248,9.5,9.5,72,0.00,,,0.00,VWS V14.01,2013-02-20 19:43:00,
2013-02-20 14:48:00,20.5,12.8,30.15,NW,315,3.9,6.3,72,0.00,,OVC033,0.00,VWS V14.01,2013-02-20 19:48:00,
2013-02-20 14:53:00,20.3,12.6,30.15,NE,45,15.7,15.7,72,0.00,,OVC033,0.00,VWS V14.01,2013-02-20 19:53:00,
2013-02-20 14:58:00,20.5,12.9,30.15,NW,315,9.0,13.0,72,0.00,,OVC033,0.00,VWS V14.01,2013-02-20 19:58:00,
2013-02-20 15:03:00,20.5,12.8,30.15,WNW,292,8.4,8.4,72,0.00,,OVC033,0.00,VWS V14.01,2013-02-20 20:03:00,
2013-02-20 15:08:00,20.5,12.8,30.15,WSW,248,7.8,7.8,72,0.00,,OVC033,0.00,VWS V14.01,2013-02-20 20:08:00,
2013-02-20 15:13:00,20.5,12.8,30.12,WNW,292,3.4,3.4,72,0.00,,OVC033,0.00,VWS V14.01,2013-02-20 20:13:00,
2013-02-20 15:18:00,20.5,12.8,30.12,NW,315,6.2,9.1,72,0.00,,OVC033,0.00,VWS V14.01,2013-02-20 20:18:00,
2013-02-20 15:23:00,20.7,12.9,30.12,WNW,292,7.3,7.3,72,0.00,,OVC033,0.00,VWS V14.01,2013-02-20 20:23:00,
2013-02-20 15:28:00,20.7,12.9,30.15,NW,315,14.5,14.5,72,0.00,,OVC033,0.00,VWS V14.01,2013-02-20 20:28:00,
2013-02-20 15:33:00,20.5,12.8,30.15,SSW,202,7.3,7.3,72,0.00,,OVC033,0.00,VWS V14.01,2013-02-20 20:33:00,
2013-02-20 15:38:00,20.5,12.8,30.15,West,270,6.2,6.2,72,0.00,,OVC033,0.00,VWS V14.01,2013-02-20 20:38:00,
2013-02-20 15:43:00,20.5,12.8,30.15,WSW,248,8.4,8.4,72,0.00,,OVC033,0.00,VWS V14.01,2013-02-20 20:43:00,
2013-02-20 15:48:00,20.5,12.8,30.15,NW,315,8.4,14.0,72,0.00,,OVC033,0.00,VWS V14.01,2013-02-20 20:48:00,
2013-02-20 15:53:00,20.5,12.9,30.15,WNW,292,5.0,12.0,72,0.00,,OVC033,0.00,VWS V14.01,2013-02-20 20:53:00,
2013-02-20 15:58:00,20.5,12.9,30.15,WNW,292,2.8,3.4,72,0.00,,OVC033,0.00,VWS V14.01,2013-02-20 20:58:00,
2013-02-20 16:03:00,20.5,12.9,30.15,NE,45,7.8,7.8,72,0.00,,OVC033,0.00,VWS V14.01,2013-02-20 21:03:00,
2013-02-20 16:08:00,20.5,12.8,30.15,NE,45,7.8,7.8,72,0.00,,OVC033,0.00,VWS V14.01,2013-02-20 21:08:00,
2013-02-20 16:13:00,20.7,12.9,30.15,NE,45,7.8,7.8,72,0.00,,OVC033,0.00,VWS V14.01,2013-02-20 21:13:00,
2013-02-20 16:18:00,20.7,12.9,30.15,NE,45,7.8,7.8,72,0.00,,OVC033,0.00,VWS V14.01,2013-02-20 21:18:00,
2013-02-20 16:23:00,20.7,12.9,30.15,WSW,248,18.5,18.5,72,0.00,,OVC033,0.00,VWS V14.01,2013-02-20 21:23:00,
2013-02-20 16:28:00,20.5,12.8,30.15,WNW,292,10.1,10.1,72,0.00,,,0.00,VWS V14.01,2013-02-20 21:28:00,
2013-02-20 16:33:00,20.5,12.8,30.15,WNW,292,10.1,10.1,72,0.00,,,0.00,VWS V14.01,2013-02-20 21:33:00,
2013-02-20 16:38:00,20.7,12.9,30.15,WNW,292,10.1,10.1,72,0.00,,,0.00,VWS V14.01,2013-02-20 21:38:00,
2013-02-20 16:43:00,20.5,12.9,30.15,WNW,292,10.1,10.1,72,0.00,,,0.00,VWS V14.01,2013-02-20 21:43:00,
2013-02-20 16:48:00,20.5,12.9,30.15,WNW,292,10.1,10.1,72,0.00,,,0.00,VWS V14.01,2013-02-20 21:48:00,
2013-02-20 16:53:00,20.5,12.9,30.18,WNW,292,10.1,10.1,72,0.00,,,0.00,VWS V14.01,2013-02-20 21:53:00,
2013-02-20 16:58:00,20.5,12.9,30.18,WNW,292,10.1,10.1,72,0.00,,,0.00,VWS V14.01,2013-02-20 21:58:00,
2013-02-20 17:03:00,20.5,12.9,30.18,WNW,292,10.1,10.1,72,0.00,,,0.00,VWS V14.01,2013-02-20 22:03:00,
2013-02-20 17:08:00,20.5,12.9,30.18,WNW,292,10.1,10.1,72,0.00,,,0.00,VWS V14.01,2013-02-20 22:08:00,
2013-02-20 17:13:00,20.5,12.9,30.18,WNW,292,10.1,10.1,72,0.00,,,0.00,VWS V14.01,2013-02-20 22:13:00,
2013-02-20 17:18:00,20.5,12.9,30.18,WNW,292,10.1,10.1,72,0.00,,,0.00,VWS V14.01,2013-02-20 22:18:00,
2013-02-20 17:23:00,20.5,12.9,30.18,WNW,292,10.1,10.1,72,0.00,,,0.00,VWS V14.01,2013-02-20 22:23:00,
2013-02-20 17:28:00,20.5,12.9,30.18,WNW,292,10.1,10.1,72,0.00,,,0.00,VWS V14.01,2013-02-20 22:28:00,
2013-02-20 17:33:00,20.5,12.9,30.18,WNW,292,10.1,10.1,72,0.00,,,0.00,VWS V14.01,2013-02-20 22:33:00,
2013-02-20 17:39:00,20.5,12.9,30.21,WNW,292,10.1,10.1,72,0.00,,,0.00,VWS V14.01,2013-02-20 22:39:00,
2013-02-20 17:44:00,20.5,12.9,30.21,WNW,292,10.1,10.1,72,0.00,,,0.00,VWS V14.01,2013-02-20 22:44:00,
2013-02-20 17:49:00,20.5,13.1,30.21,WSW,248,3.9,8.7,72,0.00,,,0.00,VWS V14.01,2013-02-20 22:49:00,
2013-02-20 17:54:00,20.3,13.0,30.18,NW,315,10.6,10.6,73,0.00,,,0.00,VWS V14.01,2013-02-20 22:54:00,
2013-02-20 17:59:00,20.3,13.0,30.18,NE,45,5.6,7.7,73,0.00,,,0.00,VWS V14.01,2013-02-20 22:59:00,
2013-02-20 18:04:00,20.3,13.0,30.18,WSW,248,7.3,7.3,73,0.00,,,0.00,VWS V14.01,2013-02-20 23:04:00,
2013-02-20 18:09:00,20.3,13.0,30.18,WNW,292,0.0,0.0,73,0.00,,,0.00,VWS V14.01,2013-02-20 23:09:00,
2013-02-20 18:14:00,20.3,13.0,30.18,WNW,292,0.0,0.0,73,0.00,,,0.00,VWS V14.01,2013-02-20 23:14:00,
2013-02-20 18:19:00,20.3,13.0,30.18,WNW,292,0.0,0.0,73,0.00,,,0.00,VWS V14.01,2013-02-20 23:19:00,
2013-02-20 18:24:00,20.3,13.0,30.18,SSE,158,5.6,5.6,73,0.00,,,0.00,VWS V14.01,2013-02-20 23:24:00,
2013-02-20 18:29:00,20.3,13.5,30.18,SSE,158,5.6,5.6,74,0.00,,,0.00,VWS V14.01,2013-02-20 23:29:00,
2013-02-20 18:34:00,20.3,14.0,30.18,SSE,158,0.0,2.9,76,0.00,,,0.00,VWS V14.01,2013-02-20 23:34:00,
2013-02-20 18:39:00,20.1,13.9,30.18,WNW,292,6.7,6.7,76,0.00,,,0.00,VWS V14.01,2013-02-20 23:39:00,
2013-02-20 18:44:00,20.1,13.9,30.18,NW,315,5.0,5.8,76,0.00,,,0.00,VWS V14.01,2013-02-20 23:44:00,
2013-02-20 18:49:00,19.9,13.9,30.18,WNW,292,7.3,7.3,77,0.00,,,0.00,VWS V14.01,2013-02-20 23:49:00,
2013-02-20 18:54:00,19.9,14.1,30.18,NE,45,6.7,6.7,78,0.00,,,0.00,VWS V14.01,2013-02-20 23:54:00,
2013-02-20 18:59:00,19.8,13.7,30.18,NW,315,15.7,15.7,77,0.00,,,0.00,VWS V14.01,2013-02-20 23:59:00,
2013-02-20 19:04:00,19.8,13.7,30.18,NW,315,8.4,8.4,77,0.00,,,0.00,VWS V14.01,2013-02-21 00:04:00,
2013-02-20 19:09:00,19.8,13.6,30.18,WNW,292,10.6,10.6,76,0.00,,,0.00,VWS V14.01,2013-02-21 00:09:00,
2013-02-20 19:14:00,19.9,13.8,30.18,WSW,248,6.7,6.7,76,0.00,,,0.00,VWS V14.01,2013-02-21 00:14:00,
2013-02-20 19:19:00,19.9,13.8,30.18,NE,45,6.7,6.7,76,0.00,,,0.00,VWS V14.01,2013-02-21 00:19:00,
2013-02-20 19:24:00,19.9,13.8,30.18,WNW,292,9.5,9.5,76,0.00,,,0.00,VWS V14.01,2013-02-21 00:24:00,
2013-02-20 19:29:00,19.9,13.6,30.18,NE,45,2.8,2.8,76,0.00,,,0.00,VWS V14.01,2013-02-21 00:29:00,
2013-02-20 19:34:00,19.9,13.5,30.18,WSW,248,7.8,7.8,76,0.00,,,0.00,VWS V14.01,2013-02-21 00:34:00,
2013-02-20 19:39:00,19.9,13.5,30.18,NW,315,10.1,10.1,76,0.00,,,0.00,VWS V14.01,2013-02-21 00:39:00,
2013-02-20 19:44:00,19.9,13.3,30.18,WSW,248,6.2,6.2,75,0.00,,,0.00,VWS V14.01,2013-02-21 00:44:00,
2013-02-20 19:49:00,19.9,13.0,30.18,WSW,248,6.7,7.2,74,0.00,,,0.00,VWS V14.01,2013-02-21 00:49:00,
2013-02-20 19:54:00,19.8,12.8,30.18,SSW,202,12.3,12.3,74,0.00,,,0.00,VWS V14.01,2013-02-21 00:54:00,
2013-02-20 19:59:00,19.8,12.8,30.18,NW,315,7.3,7.3,74,0.00,,,0.00,VWS V14.01,2013-02-21 00:59:00,
2013-02-20 20:04:00,19.8,12.8,30.18,WNW,292,3.4,3.4,74,0.00,,,0.00,VWS V14.01,2013-02-21 01:04:00,
2013-02-20 20:09:00,19.8,12.8,30.21,WNW,292,3.4,3.4,74,0.00,,,0.00,VWS V14.01,2013-02-21 01:09:00,
2013-02-20 20:14:00,19.6,12.5,30.21,WNW,292,3.4,3.4,74,0.00,,,0.00,VWS V14.01,2013-02-21 01:14:00,
2013-02-20 20:19:00,19.4,12.3,30.21,WNW,292,3.4,3.4,74,0.00,,,0.00,VWS V14.01,2013-02-21 01:19:00,
2013-02-20 20:24:00,19.4,12.3,30.21,WNW,292,3.4,3.4,74,0.00,,,0.00,VWS V14.01,2013-02-21 01:24:00,
2013-02-20 20:29:00,19.4,12.3,30.21,WNW,292,3.4,3.4,74,0.00,,,0.00,VWS V14.01,2013-02-21 01:29:00,
2013-02-20 20:34:00,19.4,12.3,30.21,WNW,292,3.4,3.4,74,0.00,,,0.00,VWS V14.01,2013-02-21 01:34:00,
2013-02-20 20:39:00,19.2,12.1,30.18,WNW,292,3.4,3.4,74,0.00,,,0.00,VWS V14.01,2013-02-21 01:39:00,
2013-02-20 20:44:00,19.2,12.1,30.18,WNW,292,3.4,3.4,74,0.00,,,0.00,VWS V14.01,2013-02-21 01:44:00,
2013-02-20 20:49:00,19.2,12.1,30.18,WNW,292,3.4,3.4,74,0.00,,,0.00,VWS V14.01,2013-02-21 01:49:00,
2013-02-20 20:54:00,19.2,12.3,30.21,WNW,292,3.4,3.4,74,0.00,,,0.00,VWS V14.01,2013-02-21 01:54:00,
2013-02-20 20:59:00,19.2,12.3,30.21,WNW,292,3.4,3.4,74,0.00,,,0.00,VWS V14.01,2013-02-21 01:59:00,
2013-02-20 21:04:00,19.2,12.3,30.21,WNW,292,3.4,3.4,74,0.00,,,0.00,VWS V14.01,2013-02-21 02:04:00,
2013-02-20 21:09:00,19.2,12.3,30.21,WNW,292,3.4,3.4,74,0.00,,,0.00,VWS V14.01,2013-02-21 02:09:00,
2013-02-20 21:14:00,19.2,12.3,30.21,WNW,292,3.4,3.4,74,0.00,,,0.00,VWS V14.01,2013-02-21 02:14:00,
2013-02-20 21:19:00,19.0,12.1,30.21,WSW,248,8.4,8.4,74,0.00,,,0.00,VWS V14.01,2013-02-21 02:19:00,
2013-02-20 21:24:00,19.0,12.3,30.21,SSW,202,6.7,6.7,74,0.00,,,0.00,VWS V14.01,2013-02-21 02:24:00,
2013-02-20 21:30:00,19.0,12.6,30.21,WSW,248,3.9,3.9,76,0.00,,,0.00,VWS V14.01,2013-02-21 02:30:00,
2013-02-20 21:35:00,19.0,12.4,30.21,WSW,248,3.9,3.9,75,0.00,,,0.00,VWS V14.01,2013-02-21 02:35:00,
2013-02-20 21:40:00,19.0,12.4,30.21,WSW,248,3.9,3.9,75,0.00,,,0.00,VWS V14.01,2013-02-21 02:40:00,
2013-02-20 21:45:00,19.0,12.6,30.21,WSW,248,3.9,3.9,76,0.00,,,0.00,VWS V14.01,2013-02-21 02:45:00,
2013-02-20 21:50:00,19.0,12.9,30.21,WSW,248,3.9,3.9,76,0.00,,,0.00,VWS V14.01,2013-02-21 02:50:00,
2013-02-20 21:55:00,19.0,12.9,30.21,WSW,248,3.9,3.9,76,0.00,,,0.00,VWS V14.01,2013-02-21 02:55:00,
2013-02-20 22:00:00,19.0,12.9,30.21,WSW,248,3.9,3.9,76,0.00,,,0.00,VWS V14.01,2013-02-21 03:00:00,
2013-02-20 22:05:00,19.0,12.9,30.21,WSW,248,3.9,3.9,76,0.00,,,0.00,VWS V14.01,2013-02-21 03:05:00,
2013-02-20 22:10:00,19.0,12.9,30.21,WSW,248,3.9,3.9,76,0.00,,,0.00,VWS V14.01,2013-02-21 03:10:00,
2013-02-20 22:15:00,19.0,12.9,30.21,WSW,248,3.9,3.9,76,0.00,,,0.00,VWS V14.01,2013-02-21 03:15:00,
2013-02-20 22:20:00,19.0,12.9,30.21,WSW,248,3.9,3.9,76,0.00,,,0.00,VWS V14.01,2013-02-21 03:20:00,
2013-02-20 22:25:00,19.0,12.9,30.21,WSW,248,3.9,3.9,76,0.00,,,0.00,VWS V14.01,2013-02-21 03:25:00,
2013-02-20 22:30:00,19.0,12.9,30.21,WSW,248,3.9,3.9,76,0.00,,,0.00,VWS V14.01,2013-02-21 03:30:00,
2013-02-20 22:35:00,19.0,13.0,30.21,WSW,248,3.9,3.9,77,0.00,,,0.00,VWS V14.01,2013-02-21 03:35:00,
2013-02-20 22:40:00,19.0,13.0,30.21,WSW,248,3.9,3.9,77,0.00,,,0.00,VWS V14.01,2013-02-21 03:40:00,
2013-02-20 22:51:00,18.9,12.9,30.21,WSW,248,3.9,3.9,77,0.00,,,0.00,VWS V14.01,2013-02-21 03:51:00,
2013-02-20 22:56:00,18.7,13.3,30.21,WNW,292,5.0,5.0,79,0.00,,,0.00,VWS V14.01,2013-02-21 03:56:00,
2013-02-20 23:01:00,18.7,13.3,30.21,NW,315,3.9,3.9,79,0.00,,,0.00,VWS V14.01,2013-02-21 04:01:00,
2013-02-20 23:06:00,18.7,13.1,30.21,NW,315,3.9,3.9,78,0.00,,,0.00,VWS V14.01,2013-02-21 04:06:00,
2013-02-20 23:11:00,18.5,12.5,30.18,NW,315,3.9,3.9,77,0.00,,,0.00,VWS V14.01,2013-02-21 04:11:00,
2013-02-20 23:16:00,18.5,12.6,30.18,NE,45,7.3,7.3,78,0.00,,,0.00,VWS V14.01,2013-02-21 04:16:00,
2013-02-20 23:21:00,18.3,12.5,30.18,NW,315,6.2,6.2,78,0.00,,,0.00,VWS V14.01,2013-02-21 04:21:00,
2013-02-20 23:26:00,18.3,12.5,30.21,NW,315,14.5,14.5,78,0.00,,,0.00,VWS V14.01,2013-02-21 04:26:00,
2013-02-20 23:31:00,18.3,12.5,30.21,SW,225,6.2,10.1,78,0.00,,,0.00,VWS V14.01,2013-02-21 04:31:00,
2013-02-20 23:36:00,18.1,12.4,30.21,WNW,292,5.0,5.0,78,0.00,,,0.00,VWS V14.01,2013-02-21 04:36:00,
2013-02-20 23:41:00,18.0,12.7,30.18,NW,315,9.5,9.5,80,0.00,,,0.00,VWS V14.01,2013-02-21 04:41:00,
2013-02-20 23:46:00,17.8,12.5,30.18,WNW,292,7.8,7.8,80,0.00,,,0.00,VWS V14.01,2013-02-21 04:46:00,
2013-02-20 23:51:00,17.6,12.5,30.18,NE,45,3.4,3.4,80,0.00,,,0.00,VWS V14.01,2013-02-21 04:51:00,
2013-02-20 23:56:00,17.4,12.3,30.21,WNW,292,0.0,0.0,80,0.00,,,0.00,VWS V14.01,2013-02-21 04:56:00,